Enter the Airport ICAO Code

Search by Airport or City

Current Weather

LETO | Madrid–Torrejón Airport

Madrid, Community of Madrid, Spain

Last Update 20 Minutes Ago

Partly Cloudy Sky

Temperature of 05 ºC

Moderate Winds from SouthWest

Temperature

05 ºC

Dew Point Temperature

00 ºC Below Zero

Relative Humidity

70.07 %

Wind Direction

SouthWest (220º, Without Significant Variations)

Wind Velocity

19 km/h (10 kt)

Gusts

None

Visibility

Greater than 10 Kilometers

Sea Level Pressure

1007 hPa (Hectopascals)

Layers of Clouds

30% to 60% of Sky Covered from 2103 mts (6900 ft) Above Ground Level.

METAR LETO 052100Z 22010KT 9999 SCT069 05/M00 Q1007 NOSIG

Weather Forecast

LETO | Madrid–Torrejón Airport

Madrid, Community of Madrid, Spain

Forecast valid for the next 21 Hours

From now on it is expected:

Sky with Few Clouds

Moderate Winds from West

In 15 hours it is expected the begining of 6 hours with intermittent periods of:

Moderate Winds from West with Gusts

Maximum Temperature

09 ºC in 17 Hours

Minimum Temperature

02 ºC Below Zero in 9 Hours

TAF LETO 051700Z 0518/0618 26010KT 9999 FEW050 TX09/0614Z TNM02/0606Z PROB30 TEMPO 0612/0618 26015G25KT